Atlantic Coast — WDD9171 — position and weather

sailwx.info

Track history (hours):
 
Tides and Currents Weather Stations Pressure Air Temp Water Temp Dewpoint Dewpoint Depression Visibility Wind Speed Wind Dir Waves Ship Positions

Atlantic Coast

Owner: DANN MARINE TOWING, CHESAPEAKE CITY, MD. More information available from US FCC via Universal Licensing System and Coast Guard Vessel Documentation Center.

Last reported at 2017-Oct-17 10:58 UTC. Time now 2017-Oct-17 11:15 UTC.
Position N 40°29' W 073°55'.

Length 30 m; draft 4.2 m.

Type: Tug. MMSI: 367307850.

Date/timePositionNaut miles runAvg speedWind from/ knotsBaromVisibWave heightAir tempDewpointWater temp
2017-Oct-17 10:58N 40°29' W 073°55'3 7.0
2017-Oct-17 10:30N 40°31' W 073°59'3 6.1
2017-Oct-17 10:00N 40°33' W 074°02'3 6.7
2017-Oct-17 09:31N 40°36' W 074°03'3 5.8
2017-Oct-17 09:01N 40°39' W 074°03'3 6.3
2017-Oct-17 08:31N 40°42' W 074°02'3 6.8
2017-Oct-17 08:01N 40°45' W 074°01'1 2.0
2017-Oct-17 07:31N 40°46' W 074°00'0 0.6
2017-Oct-17 07:01N 40°46' W 074°00'0 0.4
2017-Oct-17 06:31N 40°46' W 074°00'0 0.1
2017-Oct-17 06:01N 40°46' W 074°00'0 0.6
2017-Oct-17 05:31N 40°46' W 074°00'3 5.2
2017-Oct-17 05:00N 40°43' W 074°01'1 2.5
2017-Oct-17 04:31N 40°42' W 074°02'3 5.5
2017-Oct-17 04:01N 40°40' W 074°03'3 6.2
2017-Oct-17 03:30N 40°37' W 074°03'3 6.0
2017-Oct-17 03:00N 40°34' W 074°02'3 5.9
2017-Oct-17 02:31N 40°31' W 073°59'3 5.6
2017-Oct-17 02:00N 40°30' W 073°56'3 6.1
2017-Oct-17 01:29N 40°27' W 073°54'4 7.5
2017-Oct-17 00:59N 40°24' W 073°52'1 3.1
2017-Oct-17 00:30N 40°23' W 073°50'3 5.3
2017-Oct-16 23:51N 40°27' W 073°51'3 6.9
2017-Oct-16 23:24N 40°29' W 073°54'3 6.9
2017-Oct-16 23:00N 40°30' W 073°57'3 6.3
2017-Oct-16 22:30N 40°32' W 074°01'3 5.5
2017-Oct-16 22:00N 40°34' W 074°02'3 5.7
2017-Oct-16 21:30N 40°37' W 074°03'2 4.5
2017-Oct-16 21:01N 40°39' W 074°03'2 4.8
2017-Oct-16 20:31N 40°41' W 074°02'3 5.4
2017-Oct-16 20:01N 40°44' W 074°01'2 4.4
2017-Oct-16 19:31N 40°46' W 074°00'0 0.6
2017-Oct-16 19:01N 40°46' W 074°01'0 0.8
2017-Oct-16 18:30N 40°46' W 074°00'0 0.4
2017-Oct-16 18:00N 40°46' W 074°00'0 0.2
2017-Oct-16 17:31N 40°46' W 074°00'0 0.8
2017-Oct-16 17:00N 40°46' W 074°00'0 0.5
2017-Oct-16 16:31N 40°47' W 074°00'0 0.2
2017-Oct-16 16:01N 40°47' W 073°60'0 0.1
2017-Oct-16 15:30N 40°47' W 074°00'0 0.2
2017-Oct-16 15:00N 40°47' W 074°00'0 0.1
2017-Oct-16 14:00N 40°47' W 074°00'1 1.1
2017-Oct-16 13:31N 40°46' W 074°00'3 5.0
2017-Oct-16 13:01N 40°44' W 074°01'2 3.4
2017-Oct-16 12:31N 40°42' W 074°02'3 5.5
2017-Oct-16 12:01N 40°40' W 074°03'4 7.6
2017-Oct-16 11:30N 40°36' W 074°02'3 6.9
2017-Oct-16 11:00N 40°32' W 074°01'3 6.5
2017-Oct-16 10:29N 40°30' W 073°58'10 6.8
2017-Oct-16 09:04N 40°23' W 073°50'1 5.5
2017-Oct-16 08:57N 40°23' W 073°50'2 5.0
2017-Oct-16 08:30N 40°26' W 073°50'4 6.9
2017-Oct-16 07:53N 40°28' W 073°54'2 6.3
2017-Oct-16 07:30N 40°30' W 073°57'3 5.7
2017-Oct-16 07:00N 40°31' W 074°00'3 6.1
2017-Oct-16 06:30N 40°34' W 074°02'4 7.1
2017-Oct-16 06:01N 40°37' W 074°03'4 7.2
2017-Oct-16 05:31N 40°41' W 074°02'4 7.7
2017-Oct-16 05:01N 40°45' W 074°01'2 3.3
2017-Oct-16 04:31N 40°46' W 074°00'0 0.6
2017-Oct-16 04:00N 40°46' W 074°00'0 0.5
2017-Oct-16 03:31N 40°46' W 074°00'0 0.1
2017-Oct-16 03:01N 40°46' W 074°00'3 6.4
2017-Oct-16 02:31N 40°43' W 074°01'4 7.7
2017-Oct-16 02:01N 40°39' W 074°03'4 7.0
2017-Oct-16 01:30N 40°36' W 074°02'1 1.6
2017-Oct-16 01:00N 40°35' W 074°02'4 6.9
2017-Oct-16 00:30N 40°32' W 074°01'4 7.1
2017-Oct-15 23:59N 40°30' W 073°56'6 7.1
2017-Oct-15 23:10N 40°25' W 073°53'2 7.6
2017-Oct-15 22:57N 40°23' W 073°52'1 2.7
2017-Oct-15 22:27N 40°24' W 073°50'1 3.1
2017-Oct-15 21:59N 40°25' W 073°50'3 5.8
2017-Oct-15 21:23N 40°28' W 073°53'3 5.8
2017-Oct-15 20:57N 40°29' W 073°55'3 5.6
2017-Oct-15 20:30N 40°31' W 073°58'3 5.2
2017-Oct-15 20:00N 40°32' W 074°01'2 5.1
2017-Oct-15 19:30N 40°34' W 074°02'3 5.4
2017-Oct-15 19:00N 40°37' W 074°03'3 5.2
2017-Oct-15 18:30N 40°40' W 074°03'3 5.2
2017-Oct-15 18:01N 40°42' W 074°02'3 6.1
2017-Oct-15 17:31N 40°45' W 074°01'1 2.8
2017-Oct-15 17:01N 40°46' W 074°00'0 0.4
2017-Oct-15 16:30N 40°46' W 074°00'0 0.7
2017-Oct-15 16:01N 40°46' W 074°00'0 0.7
2017-Oct-15 15:31N 40°46' W 074°00'4 7.6
2017-Oct-15 15:01N 40°42' W 074°02'7 6.8
2017-Oct-15 14:00N 40°35' W 074°02'3 5.2
2017-Oct-15 13:30N 40°33' W 074°01'4 7.7
2017-Oct-15 13:00N 40°30' W 073°58'4 8.2
2017-Oct-15 12:30N 40°28' W 073°53'5 8.5
2017-Oct-15 11:53N 40°23' W 073°50'1 3.6
2017-Oct-15 11:30N 40°25' W 073°50'4 6.8
2017-Oct-15 10:59N 40°28' W 073°53'4 7.8
2017-Oct-15 10:27N 40°30' W 073°57'4 7.8
2017-Oct-15 09:59N 40°32' W 074°01'3 7.0
2017-Oct-15 09:30N 40°35' W 074°02'3 6.0
2017-Oct-15 09:01N 40°38' W 074°03'3 5.7
2017-Oct-15 08:31N 40°41' W 074°02'3 5.7
2017-Oct-15 08:01N 40°43' W 074°01'3 5.3
2017-Oct-15 07:31N 40°46' W 074°00'0 0.4
2017-Oct-15 07:00N 40°46' W 074°00'0 0.0
2017-Oct-15 06:31N 40°46' W 074°00'0 0.4
2017-Oct-15 06:01N 40°46' W 074°00'0 0.4
2017-Oct-15 05:31N 40°46' W 074°00'0 0.2
2017-Oct-15 05:01N 40°46' W 074°00'0 0.2
2017-Oct-15 04:30N 40°46' W 074°00'0 0.0
2017-Oct-15 04:01N 40°46' W 074°00'0 0.0
2017-Oct-15 03:30N 40°46' W 074°00'0 0.0
2017-Oct-15 03:00N 40°46' W 074°00'0 0.0
2017-Oct-15 02:30N 40°46' W 074°00'0 0.0
2017-Oct-15 02:00N 40°46' W 074°00'0 0.0
2017-Oct-15 01:30N 40°46' W 074°00'0 0.0
2017-Oct-15 01:00N 40°46' W 074°00'0 0.0
2017-Oct-15 00:31N 40°46' W 074°00'0 0.0
2017-Oct-15 00:01N 40°46' W 074°00'0 0.0
2017-Oct-14 23:30N 40°46' W 074°00'0 0.2
2017-Oct-14 23:00N 40°46' W 074°00'0 1.0
2017-Oct-14 22:31N 40°46' W 074°01'0 0.8
2017-Oct-14 22:01N 40°46' W 074°00'1 1.5
2017-Oct-14 21:30N 40°47' W 073°60'0 0.3
2017-Oct-14 21:00N 40°47' W 074°00'0 0.3
2017-Oct-14 20:30N 40°47' W 073°60'0 0.1
2017-Oct-14 20:00N 40°47' W 073°60'0 0.2
2017-Oct-14 19:30N 40°47' W 073°60'0 0.1
2017-Oct-14 19:00N 40°47' W 073°60'0 0.2
2017-Oct-14 18:30N 40°47' W 074°00'1 2.0
2017-Oct-14 18:01N 40°46' W 074°01'0 0.9
2017-Oct-14 17:30N 40°45' W 074°01'1 2.1
2017-Oct-14 17:00N 40°46' W 074°00'0 0.7
2017-Oct-14 16:30N 40°46' W 074°01'1 1.0
2017-Oct-14 16:00N 40°46' W 074°01'0 0.2
2017-Oct-14 15:30N 40°46' W 074°01'2 3.4
2017-Oct-14 15:00N 40°44' W 074°01'3 5.4
2017-Oct-14 14:30N 40°41' W 074°02'3 6.6
2017-Oct-14 14:00N 40°38' W 074°03'3 6.9
2017-Oct-14 13:30N 40°35' W 074°02'1 1.9
2017-Oct-14 13:00N 40°34' W 074°02'3 5.9
2017-Oct-14 12:30N 40°31' W 074°00'5 6.2
2017-Oct-14 11:42N 40°29' W 073°54'1 7.0
2017-Oct-14 11:30N 40°28' W 073°53'5 4.4
2017-Oct-14 10:25N 40°24' W 073°50'6 4.6
2017-Oct-14 09:13N 40°29' W 073°54'2 6.4
2017-Oct-14 08:55N 40°30' W 073°56'3 6.2
2017-Oct-14 08:30N 40°31' W 073°59'3 5.6
2017-Oct-14 08:00N 40°33' W 074°02'3 5.7
2017-Oct-14 07:30N 40°35' W 074°02'3 5.3
2017-Oct-14 07:00N 40°38' W 074°03'2 4.9
2017-Oct-14 06:30N 40°40' W 074°03'3 5.2
2017-Oct-14 06:01N 40°43' W 074°02'2 4.0
2017-Oct-14 05:30N 40°45' W 074°01'1 2.8
2017-Oct-14 05:00N 40°46' W 074°00'0 0.2
2017-Oct-14 04:30N 40°46' W 074°00'0 0.6
2017-Oct-14 04:00N 40°46' W 074°00'0 0.0
2017-Oct-14 03:30N 40°46' W 074°00'0 0.0
2017-Oct-14 03:01N 40°46' W 074°00'0 0.0
2017-Oct-14 02:31N 40°46' W 074°00'0 0.0
2017-Oct-14 02:01N 40°46' W 074°00'0 0.0
2017-Oct-14 01:30N 40°46' W 074°00'0 0.0
2017-Oct-14 01:00N 40°46' W 074°00'0 0.0
2017-Oct-14 00:30N 40°46' W 074°00'0 0.0
2017-Oct-14 00:01N 40°46' W 074°00'0 0.0
2017-Oct-13 23:31N 40°46' W 074°00'0 0.0
2017-Oct-13 23:00N 40°46' W 074°00'0 0.0
2017-Oct-13 22:30N 40°46' W 074°00'0 0.0
2017-Oct-13 22:00N 40°46' W 074°00'2 3.7
2017-Oct-13 21:30N 40°44' W 074°01'4 9.0
2017-Oct-13 21:00N 40°40' W 074°03'4 8.0
2017-Oct-13 20:29N 40°39' W 074°08'1 2.0
2017-Oct-13 20:00N 40°38' W 074°09'0 0.0
2017-Oct-13 19:30N 40°38' W 074°09'0 0.1
2017-Oct-13 18:59N 40°38' W 074°09'2 4.7
2017-Oct-13 18:30N 40°39' W 074°06'4 7.4
2017-Oct-13 18:00N 40°41' W 074°02'4 8.3
2017-Oct-13 17:30N 40°45' W 074°01'1 2.3
2017-Oct-13 17:00N 40°46' W 074°00'0 0.1
2017-Oct-13 16:30N 40°46' W 074°00'0 0.5
2017-Oct-13 16:00N 40°46' W 074°00'0 0.6
2017-Oct-13 15:30N 40°46' W 074°00'0 0.1
2017-Oct-13 15:00N 40°46' W 074°00'0 0.0
2017-Oct-13 14:30N 40°46' W 074°00'0 0.0
2017-Oct-13 14:00N 40°46' W 074°00'0 0.0
2017-Oct-13 13:30N 40°46' W 074°00'0 0.0
2017-Oct-13 13:01N 40°46' W 074°00'0 0.0
2017-Oct-13 12:30N 40°46' W 074°00'0 0.0
2017-Oct-13 12:00N 40°46' W 074°00'0 0.0
2017-Oct-13 11:30N 40°46' W 074°00'0 0.0
2017-Oct-13 11:00N 40°46' W 074°00'0 0.0
2017-Oct-13 10:30N 40°46' W 074°00'0 0.0
2017-Oct-13 10:00N 40°46' W 074°00'0 0.0
2017-Oct-13 09:30N 40°46' W 074°00'0 0.0
2017-Oct-13 09:00N 40°46' W 074°00'0 0.0
2017-Oct-13 08:30N 40°46' W 074°00'0 0.0
2017-Oct-13 08:00N 40°46' W 074°00'0 0.0
2017-Oct-13 07:30N 40°46' W 074°00'0 0.0
2017-Oct-13 07:00N 40°46' W 074°00'0 0.0
2017-Oct-13 06:31N 40°46' W 074°00'0 0.0
2017-Oct-13 06:00N 40°46' W 074°00'0 0.0
2017-Oct-13 05:31N 40°46' W 074°00'0 0.0
2017-Oct-13 05:00N 40°46' W 074°00'0 0.0
2017-Oct-13 04:30N 40°46' W 074°00'0 0.0
2017-Oct-13 04:00N 40°46' W 074°00'0 0.0
2017-Oct-13 03:30N 40°46' W 074°00'0 0.0
2017-Oct-13 03:00N 40°46' W 074°00'0 0.0
2017-Oct-13 02:30N 40°46' W 074°00'0 0.0
2017-Oct-13 01:30N 40°46' W 074°00'0 0.2
2017-Oct-13 01:00N 40°46' W 073°60'0 0.5
2017-Oct-13 00:30N 40°46' W 074°00'3 6.2
2017-Oct-13 00:00N 40°43' W 074°01'4 7.1
2017-Oct-12 23:30N 40°40' W 074°03'4 9.0
2017-Oct-12 23:00N 40°39' W 074°09'1 2.2
2017-Oct-12 22:30N 40°40' W 074°08'1 2.8
2017-Oct-12 22:00N 40°38' W 074°09'0 0.0
2017-Oct-12 21:30N 40°38' W 074°09'0 0.0
2017-Oct-12 21:00N 40°38' W 074°09'0 0.0
2017-Oct-12 20:30N 40°38' W 074°09'0 0.0
2017-Oct-12 20:00N 40°38' W 074°09'0 0.0
2017-Oct-12 14:55N 40°38' W 074°09'0 0.2
2017-Oct-12 14:30N 40°38' W 074°09'3 5.4
2017-Oct-12 14:00N 40°39' W 074°06'4 8.9
2017-Oct-12 13:30N 40°42' W 074°02'4 8.4
2017-Oct-12 13:00N 40°46' W 074°00'0 0.2
2017-Oct-12 12:31N 40°46' W 073°60'0 0.0
2017-Oct-12 12:00N 40°46' W 073°60'0 0.0
2017-Oct-12 11:30N 40°46' W 073°60'0 0.0
2017-Oct-12 11:00N 40°46' W 073°60'0 0.0
2017-Oct-12 10:30N 40°46' W 073°60'0 0.0
2017-Oct-12 10:00N 40°46' W 073°60'0 0.0
2017-Oct-12 09:30N 40°46' W 073°60'0 0.0
2017-Oct-12 09:00N 40°46' W 073°60'0 0.0
2017-Oct-12 08:30N 40°46' W 073°60'0 0.0
2017-Oct-12 08:00N 40°46' W 073°60'0 0.0
2017-Oct-12 07:30N 40°46' W 073°60'0 0.0
2017-Oct-12 07:00N 40°46' W 073°60'0 0.1
2017-Oct-12 06:31N 40°46' W 074°00'2 4.7
2017-Oct-12 06:01N 40°44' W 074°01'4 8.1
2017-Oct-12 05:30N 40°40' W 074°03'3 6.3
2017-Oct-12 05:00N 40°37' W 074°03'3 5.3
2017-Oct-12 04:30N 40°34' W 074°02'4 7.2
2017-Oct-12 04:00N 40°31' W 073°60'4 8.7
2017-Oct-12 03:30N 40°29' W 073°55'4 8.1
2017-Oct-12 02:58N 40°26' W 073°50'3 4.4
2017-Oct-12 02:21N 40°23' W 073°50'1 2.9
2017-Oct-12 02:00N 40°24' W 073°50'5 4.9
2017-Oct-12 00:59N 40°29' W 073°54'3 6.3
2017-Oct-12 00:30N 40°30' W 073°57'4 7.1
2017-Oct-12 00:00N 40°32' W 074°01'4 8.5
2017-Oct-11 23:30N 40°36' W 074°03'4 7.0
2017-Oct-11 23:00N 40°39' W 074°03'3 7.0
2017-Oct-11 22:30N 40°43' W 074°02'3 6.4
2017-Oct-11 22:01N 40°46' W 074°01'1 1.1
2017-Oct-11 21:30N 40°46' W 073°60'0 0.2
2017-Oct-11 21:01N 40°46' W 074°00'0 0.0
2017-Oct-11 20:30N 40°46' W 074°00'0 0.0
2017-Oct-11 20:00N 40°46' W 074°00'0 0.0
2017-Oct-11 19:31N 40°46' W 074°00'0 0.0
2017-Oct-11 19:00N 40°46' W 074°00'0 0.0
2017-Oct-11 18:30N 40°46' W 074°00'0 0.0
2017-Oct-11 18:00N 40°46' W 074°00'0 0.0
2017-Oct-11 17:30N 40°46' W 074°00'0 0.0
2017-Oct-11 17:00N 40°46' W 074°00'2 0.1
2017-Oct-11 00:00N 40°45' W 074°01'3 6.5
2017-Oct-10 23:31N 40°41' W 074°02'3 6.6
2017-Oct-10 23:01N 40°38' W 074°03'4 7.2
2017-Oct-10 22:31N 40°35' W 074°02'1 1.4
2017-Oct-10 22:00N 40°35' W 074°02'2 3.9
2017-Oct-10 21:30N 40°34' W 074°02'3 5.7
2017-Oct-10 21:00N 40°31' W 073°60'3 5.1
2017-Oct-10 20:26N 40°30' W 073°56'2 5.0
2017-Oct-10 20:00N 40°29' W 073°54'6 5.1
2017-Oct-10 18:51N 40°24' W 073°50'3 5.1
2017-Oct-10 18:19N 40°26' W 073°51'2 6.2
2017-Oct-10 17:59N 40°28' W 073°53'3 6.5
2017-Oct-10 17:29N 40°30' W 073°56'3 6.3
2017-Oct-10 17:00N 40°31' W 073°60'3 5.6
2017-Oct-10 16:30N 40°34' W 074°02'3 5.5
2017-Oct-10 16:01N 40°36' W 074°03'2 4.7
2017-Oct-10 15:31N 40°39' W 074°03'2 4.2
2017-Oct-10 15:01N 40°41' W 074°03'4 4.2
2017-Oct-10 14:01N 40°45' W 074°01'1 2.7
2017-Oct-10 13:31N 40°46' W 074°00'0 0.7
2017-Oct-10 13:01N 40°46' W 074°00'0 0.1
2017-Oct-10 12:30N 40°46' W 074°00'0 0.3
2017-Oct-10 12:00N 40°46' W 074°00'0 0.3
2017-Oct-10 11:31N 40°46' W 074°00'0 0.4
2017-Oct-10 11:00N 40°46' W 074°00'0 0.1
2017-Oct-10 10:30N 40°46' W 074°00'0 0.2
2017-Oct-10 10:00N 40°46' W 073°60'0 0.0
2017-Oct-10 09:30N 40°46' W 073°60'0 0.0
2017-Oct-10 09:01N 40°46' W 073°60'0 0.0
2017-Oct-10 08:30N 40°46' W 073°60'0 0.0
2017-Oct-10 08:00N 40°46' W 073°60'0 0.0
2017-Oct-10 07:30N 40°46' W 073°60'0 0.0
2017-Oct-10 07:00N 40°46' W 073°60'0 0.0
2017-Oct-10 06:31N 40°46' W 073°60'0 0.0
2017-Oct-10 06:01N 40°46' W 073°60'0 0.0
2017-Oct-10 05:30N 40°46' W 073°60'0 0.0
2017-Oct-10 05:00N 40°46' W 073°60'0 0.0
2017-Oct-10 04:30N 40°46' W 073°60'0 0.0
2017-Oct-10 03:59N 40°46' W 073°60'0 0.0
2017-Oct-10 03:31N 40°46' W 073°60'0 0.0
2017-Oct-10 03:00N 40°46' W 073°60'0 0.0
2017-Oct-10 02:30N 40°46' W 073°60'0 0.0
2017-Oct-10 02:00N 40°46' W 073°60'0 0.0
2017-Oct-10 01:30N 40°46' W 073°60'0 0.0
2017-Oct-10 01:00N 40°46' W 073°60'0 0.0
2017-Oct-10 00:30N 40°46' W 073°60'2 3.7
2017-Oct-10 00:01N 40°44' W 074°01'4 8.6
2017-Oct-09 23:30N 40°40' W 074°03'5 9.4
2017-Oct-09 23:01N 40°36' W 074°02'4 8.9
2017-Oct-09 22:30N 40°31' W 074°00'4110.1
2017-Oct-09 18:28N 39°51' W 073°60'511.3
2017-Oct-09 18:00N 39°45' W 074°00'611.4
2017-Oct-09 17:31N 39°40' W 074°03'2711.2
2017-Oct-09 15:05N 39°17' W 074°21'111.3
2017-Oct-09 14:58N 39°16' W 074°22'511.3
2017-Oct-09 14:29N 39°11' W 074°26'611.1
2017-Oct-09 13:55N 39°05' W 074°29'511.3
2017-Oct-09 13:30N 39°01' W 074°30'611.3
2017-Oct-09 12:59N 38°55' W 074°33'611.1
2017-Oct-09 12:25N 38°49' W 074°36'  
Track history (hours):
 
Tides and Currents Weather Stations Pressure Air Temp Water Temp Dewpoint Dewpoint Depression Visibility Wind Speed Wind Dir Waves Ship Positions

Atlantic Coast

Owner: DANN MARINE TOWING, CHESAPEAKE CITY, MD. More information available from US FCC via Universal Licensing System and Coast Guard Vessel Documentation Center.

Last reported at 2017-Oct-17 10:58 UTC. Time now 2017-Oct-17 11:15 UTC.
Position N 40°29' W 073°55'.

Length 30 m; draft 4.2 m.

Type: Tug. MMSI: 367307850.

Date/timePositionNaut miles runAvg speedWind from/ knotsBaromVisibWave heightAir tempDewpointWater temp
2017-Oct-17 10:58N 40°29' W 073°55'3 7.0
2017-Oct-17 10:30N 40°31' W 073°59'3 6.1
2017-Oct-17 10:00N 40°33' W 074°02'3 6.7
2017-Oct-17 09:31N 40°36' W 074°03'3 5.8
2017-Oct-17 09:01N 40°39' W 074°03'3 6.3
2017-Oct-17 08:31N 40°42' W 074°02'3 6.8
2017-Oct-17 08:01N 40°45' W 074°01'1 2.0
2017-Oct-17 07:31N 40°46' W 074°00'0 0.6
2017-Oct-17 07:01N 40°46' W 074°00'0 0.4
2017-Oct-17 06:31N 40°46' W 074°00'0 0.1
2017-Oct-17 06:01N 40°46' W 074°00'0 0.6
2017-Oct-17 05:31N 40°46' W 074°00'3 5.2
2017-Oct-17 05:00N 40°43' W 074°01'1 2.5
2017-Oct-17 04:31N 40°42' W 074°02'3 5.5
2017-Oct-17 04:01N 40°40' W 074°03'3 6.2
2017-Oct-17 03:30N 40°37' W 074°03'3 6.0
2017-Oct-17 03:00N 40°34' W 074°02'3 5.9
2017-Oct-17 02:31N 40°31' W 073°59'3 5.6
2017-Oct-17 02:00N 40°30' W 073°56'3 6.1
2017-Oct-17 01:29N 40°27' W 073°54'4 7.5
2017-Oct-17 00:59N 40°24' W 073°52'1 3.1
2017-Oct-17 00:30N 40°23' W 073°50'3 5.3
2017-Oct-16 23:51N 40°27' W 073°51'3 6.9
2017-Oct-16 23:24N 40°29' W 073°54'3 6.9
2017-Oct-16 23:00N 40°30' W 073°57'3 6.3
2017-Oct-16 22:30N 40°32' W 074°01'3 5.5
2017-Oct-16 22:00N 40°34' W 074°02'3 5.7
2017-Oct-16 21:30N 40°37' W 074°03'2 4.5
2017-Oct-16 21:01N 40°39' W 074°03'2 4.8
2017-Oct-16 20:31N 40°41' W 074°02'3 5.4
2017-Oct-16 20:01N 40°44' W 074°01'2 4.4
2017-Oct-16 19:31N 40°46' W 074°00'0 0.6
2017-Oct-16 19:01N 40°46' W 074°01'0 0.8
2017-Oct-16 18:30N 40°46' W 074°00'0 0.4
2017-Oct-16 18:00N 40°46' W 074°00'0 0.2
2017-Oct-16 17:31N 40°46' W 074°00'0 0.8
2017-Oct-16 17:00N 40°46' W 074°00'0 0.5
2017-Oct-16 16:31N 40°47' W 074°00'0 0.2
2017-Oct-16 16:01N 40°47' W 073°60'0 0.1
2017-Oct-16 15:30N 40°47' W 074°00'0 0.2
2017-Oct-16 15:00N 40°47' W 074°00'0 0.1
2017-Oct-16 14:00N 40°47' W 074°00'1 1.1
2017-Oct-16 13:31N 40°46' W 074°00'3 5.0
2017-Oct-16 13:01N 40°44' W 074°01'2 3.4
2017-Oct-16 12:31N 40°42' W 074°02'3 5.5
2017-Oct-16 12:01N 40°40' W 074°03'4 7.6
2017-Oct-16 11:30N 40°36' W 074°02'3 6.9
2017-Oct-16 11:00N 40°32' W 074°01'3 6.5
2017-Oct-16 10:29N 40°30' W 073°58'10 6.8
2017-Oct-16 09:04N 40°23' W 073°50'1 5.5
2017-Oct-16 08:57N 40°23' W 073°50'2 5.0
2017-Oct-16 08:30N 40°26' W 073°50'4 6.9
2017-Oct-16 07:53N 40°28' W 073°54'2 6.3
2017-Oct-16 07:30N 40°30' W 073°57'3 5.7
2017-Oct-16 07:00N 40°31' W 074°00'3 6.1
2017-Oct-16 06:30N 40°34' W 074°02'4 7.1
2017-Oct-16 06:01N 40°37' W 074°03'4 7.2
2017-Oct-16 05:31N 40°41' W 074°02'4 7.7
2017-Oct-16 05:01N 40°45' W 074°01'2 3.3
2017-Oct-16 04:31N 40°46' W 074°00'0 0.6
2017-Oct-16 04:00N 40°46' W 074°00'0 0.5
2017-Oct-16 03:31N 40°46' W 074°00'0 0.1
2017-Oct-16 03:01N 40°46' W 074°00'3 6.4
2017-Oct-16 02:31N 40°43' W 074°01'4 7.7
2017-Oct-16 02:01N 40°39' W 074°03'4 7.0
2017-Oct-16 01:30N 40°36' W 074°02'1 1.6
2017-Oct-16 01:00N 40°35' W 074°02'4 6.9
2017-Oct-16 00:30N 40°32' W 074°01'4 7.1
2017-Oct-15 23:59N 40°30' W 073°56'6 7.1
2017-Oct-15 23:10N 40°25' W 073°53'2 7.6
2017-Oct-15 22:57N 40°23' W 073°52'1 2.7
2017-Oct-15 22:27N 40°24' W 073°50'1 3.1
2017-Oct-15 21:59N 40°25' W 073°50'3 5.8
2017-Oct-15 21:23N 40°28' W 073°53'3 5.8
2017-Oct-15 20:57N 40°29' W 073°55'3 5.6
2017-Oct-15 20:30N 40°31' W 073°58'3 5.2
2017-Oct-15 20:00N 40°32' W 074°01'2 5.1
2017-Oct-15 19:30N 40°34' W 074°02'3 5.4
2017-Oct-15 19:00N 40°37' W 074°03'3 5.2
2017-Oct-15 18:30N 40°40' W 074°03'3 5.2
2017-Oct-15 18:01N 40°42' W 074°02'3 6.1
2017-Oct-15 17:31N 40°45' W 074°01'1 2.8
2017-Oct-15 17:01N 40°46' W 074°00'0 0.4
2017-Oct-15 16:30N 40°46' W 074°00'0 0.7
2017-Oct-15 16:01N 40°46' W 074°00'0 0.7
2017-Oct-15 15:31N 40°46' W 074°00'4 7.6
2017-Oct-15 15:01N 40°42' W 074°02'7 6.8
2017-Oct-15 14:00N 40°35' W 074°02'3 5.2
2017-Oct-15 13:30N 40°33' W 074°01'4 7.7
2017-Oct-15 13:00N 40°30' W 073°58'4 8.2
2017-Oct-15 12:30N 40°28' W 073°53'5 8.5
2017-Oct-15 11:53N 40°23' W 073°50'1 3.6
2017-Oct-15 11:30N 40°25' W 073°50'4 6.8
2017-Oct-15 10:59N 40°28' W 073°53'4 7.8
2017-Oct-15 10:27N 40°30' W 073°57'4 7.8
2017-Oct-15 09:59N 40°32' W 074°01'3 7.0
2017-Oct-15 09:30N 40°35' W 074°02'3 6.0
2017-Oct-15 09:01N 40°38' W 074°03'3 5.7
2017-Oct-15 08:31N 40°41' W 074°02'3 5.7
2017-Oct-15 08:01N 40°43' W 074°01'3 5.3
2017-Oct-15 07:31N 40°46' W 074°00'0 0.4
2017-Oct-15 07:00N 40°46' W 074°00'0 0.0
2017-Oct-15 06:31N 40°46' W 074°00'0 0.4
2017-Oct-15 06:01N 40°46' W 074°00'0 0.4
2017-Oct-15 05:31N 40°46' W 074°00'0 0.2
2017-Oct-15 05:01N 40°46' W 074°00'0 0.2
2017-Oct-15 04:30N 40°46' W 074°00'0 0.0
2017-Oct-15 04:01N 40°46' W 074°00'0 0.0
2017-Oct-15 03:30N 40°46' W 074°00'0 0.0
2017-Oct-15 03:00N 40°46' W 074°00'0 0.0
2017-Oct-15 02:30N 40°46' W 074°00'0 0.0
2017-Oct-15 02:00N 40°46' W 074°00'0 0.0
2017-Oct-15 01:30N 40°46' W 074°00'0 0.0
2017-Oct-15 01:00N 40°46' W 074°00'0 0.0
2017-Oct-15 00:31N 40°46' W 074°00'0 0.0
2017-Oct-15 00:01N 40°46' W 074°00'0 0.0
2017-Oct-14 23:30N 40°46' W 074°00'0 0.2
2017-Oct-14 23:00N 40°46' W 074°00'0 1.0
2017-Oct-14 22:31N 40°46' W 074°01'0 0.8
2017-Oct-14 22:01N 40°46' W 074°00'1 1.5
2017-Oct-14 21:30N 40°47' W 073°60'0 0.3
2017-Oct-14 21:00N 40°47' W 074°00'0 0.3
2017-Oct-14 20:30N 40°47' W 073°60'0 0.1
2017-Oct-14 20:00N 40°47' W 073°60'0 0.2
2017-Oct-14 19:30N 40°47' W 073°60'0 0.1
2017-Oct-14 19:00N 40°47' W 073°60'0 0.2
2017-Oct-14 18:30N 40°47' W 074°00'1 2.0
2017-Oct-14 18:01N 40°46' W 074°01'0 0.9
2017-Oct-14 17:30N 40°45' W 074°01'1 2.1
2017-Oct-14 17:00N 40°46' W 074°00'0 0.7
2017-Oct-14 16:30N 40°46' W 074°01'1 1.0
2017-Oct-14 16:00N 40°46' W 074°01'0 0.2
2017-Oct-14 15:30N 40°46' W 074°01'2 3.4
2017-Oct-14 15:00N 40°44' W 074°01'3 5.4
2017-Oct-14 14:30N 40°41' W 074°02'3 6.6
2017-Oct-14 14:00N 40°38' W 074°03'3 6.9
2017-Oct-14 13:30N 40°35' W 074°02'1 1.9
2017-Oct-14 13:00N 40°34' W 074°02'3 5.9
2017-Oct-14 12:30N 40°31' W 074°00'5 6.2
2017-Oct-14 11:42N 40°29' W 073°54'1 7.0
2017-Oct-14 11:30N 40°28' W 073°53'5 4.4
2017-Oct-14 10:25N 40°24' W 073°50'6 4.6
2017-Oct-14 09:13N 40°29' W 073°54'2 6.4
2017-Oct-14 08:55N 40°30' W 073°56'3 6.2
2017-Oct-14 08:30N 40°31' W 073°59'3 5.6
2017-Oct-14 08:00N 40°33' W 074°02'3 5.7
2017-Oct-14 07:30N 40°35' W 074°02'3 5.3
2017-Oct-14 07:00N 40°38' W 074°03'2 4.9
2017-Oct-14 06:30N 40°40' W 074°03'3 5.2
2017-Oct-14 06:01N 40°43' W 074°02'2 4.0
2017-Oct-14 05:30N 40°45' W 074°01'1 2.8
2017-Oct-14 05:00N 40°46' W 074°00'0 0.2
2017-Oct-14 04:30N 40°46' W 074°00'0 0.6
2017-Oct-14 04:00N 40°46' W 074°00'0 0.0
2017-Oct-14 03:30N 40°46' W 074°00'0 0.0
2017-Oct-14 03:01N 40°46' W 074°00'0 0.0
2017-Oct-14 02:31N 40°46' W 074°00'0 0.0
2017-Oct-14 02:01N 40°46' W 074°00'0 0.0
2017-Oct-14 01:30N 40°46' W 074°00'0 0.0
2017-Oct-14 01:00N 40°46' W 074°00'0 0.0
2017-Oct-14 00:30N 40°46' W 074°00'0 0.0
2017-Oct-14 00:01N 40°46' W 074°00'0 0.0
2017-Oct-13 23:31N 40°46' W 074°00'0 0.0
2017-Oct-13 23:00N 40°46' W 074°00'0 0.0
2017-Oct-13 22:30N 40°46' W 074°00'0 0.0
2017-Oct-13 22:00N 40°46' W 074°00'2 3.7
2017-Oct-13 21:30N 40°44' W 074°01'4 9.0
2017-Oct-13 21:00N 40°40' W 074°03'4 8.0
2017-Oct-13 20:29N 40°39' W 074°08'1 2.0
2017-Oct-13 20:00N 40°38' W 074°09'0 0.0
2017-Oct-13 19:30N 40°38' W 074°09'0 0.1
2017-Oct-13 18:59N 40°38' W 074°09'2 4.7
2017-Oct-13 18:30N 40°39' W 074°06'4 7.4
2017-Oct-13 18:00N 40°41' W 074°02'4 8.3
2017-Oct-13 17:30N 40°45' W 074°01'1 2.3
2017-Oct-13 17:00N 40°46' W 074°00'0 0.1
2017-Oct-13 16:30N 40°46' W 074°00'0 0.5
2017-Oct-13 16:00N 40°46' W 074°00'0 0.6
2017-Oct-13 15:30N 40°46' W 074°00'0 0.1
2017-Oct-13 15:00N 40°46' W 074°00'0 0.0
2017-Oct-13 14:30N 40°46' W 074°00'0 0.0
2017-Oct-13 14:00N 40°46' W 074°00'0 0.0
2017-Oct-13 13:30N 40°46' W 074°00'0 0.0
2017-Oct-13 13:01N 40°46' W 074°00'0 0.0
2017-Oct-13 12:30N 40°46' W 074°00'0 0.0
2017-Oct-13 12:00N 40°46' W 074°00'0 0.0
2017-Oct-13 11:30N 40°46' W 074°00'0 0.0
2017-Oct-13 11:00N 40°46' W 074°00'0 0.0
2017-Oct-13 10:30N 40°46' W 074°00'0 0.0
2017-Oct-13 10:00N 40°46' W 074°00'0 0.0
2017-Oct-13 09:30N 40°46' W 074°00'0 0.0
2017-Oct-13 09:00N 40°46' W 074°00'0 0.0
2017-Oct-13 08:30N 40°46' W 074°00'0 0.0
2017-Oct-13 08:00N 40°46' W 074°00'0 0.0
2017-Oct-13 07:30N 40°46' W 074°00'0 0.0
2017-Oct-13 07:00N 40°46' W 074°00'0 0.0
2017-Oct-13 06:31N 40°46' W 074°00'0 0.0
2017-Oct-13 06:00N 40°46' W 074°00'0 0.0
2017-Oct-13 05:31N 40°46' W 074°00'0 0.0
2017-Oct-13 05:00N 40°46' W 074°00'0 0.0
2017-Oct-13 04:30N 40°46' W 074°00'0 0.0
2017-Oct-13 04:00N 40°46' W 074°00'0 0.0
2017-Oct-13 03:30N 40°46' W 074°00'0 0.0
2017-Oct-13 03:00N 40°46' W 074°00'0 0.0
2017-Oct-13 02:30N 40°46' W 074°00'0 0.0
2017-Oct-13 01:30N 40°46' W 074°00'0 0.2
2017-Oct-13 01:00N 40°46' W 073°60'0 0.5
2017-Oct-13 00:30N 40°46' W 074°00'3 6.2
2017-Oct-13 00:00N 40°43' W 074°01'4 7.1
2017-Oct-12 23:30N 40°40' W 074°03'4 9.0
2017-Oct-12 23:00N 40°39' W 074°09'1 2.2
2017-Oct-12 22:30N 40°40' W 074°08'1 2.8
2017-Oct-12 22:00N 40°38' W 074°09'0 0.0
2017-Oct-12 21:30N 40°38' W 074°09'0 0.0
2017-Oct-12 21:00N 40°38' W 074°09'0 0.0
2017-Oct-12 20:30N 40°38' W 074°09'0 0.0
2017-Oct-12 20:00N 40°38' W 074°09'0 0.0
2017-Oct-12 14:55N 40°38' W 074°09'0 0.2
2017-Oct-12 14:30N 40°38' W 074°09'3 5.4
2017-Oct-12 14:00N 40°39' W 074°06'4 8.9
2017-Oct-12 13:30N 40°42' W 074°02'4 8.4
2017-Oct-12 13:00N 40°46' W 074°00'0 0.2
2017-Oct-12 12:31N 40°46' W 073°60'0 0.0
2017-Oct-12 12:00N 40°46' W 073°60'0 0.0
2017-Oct-12 11:30N 40°46' W 073°60'0 0.0
2017-Oct-12 11:00N 40°46' W 073°60'0 0.0
2017-Oct-12 10:30N 40°46' W 073°60'0 0.0
2017-Oct-12 10:00N 40°46' W 073°60'0 0.0
2017-Oct-12 09:30N 40°46' W 073°60'0 0.0
2017-Oct-12 09:00N 40°46' W 073°60'0 0.0
2017-Oct-12 08:30N 40°46' W 073°60'0 0.0
2017-Oct-12 08:00N 40°46' W 073°60'0 0.0
2017-Oct-12 07:30N 40°46' W 073°60'0 0.0
2017-Oct-12 07:00N 40°46' W 073°60'0 0.1
2017-Oct-12 06:31N 40°46' W 074°00'2 4.7
2017-Oct-12 06:01N 40°44' W 074°01'4 8.1
2017-Oct-12 05:30N 40°40' W 074°03'3 6.3
2017-Oct-12 05:00N 40°37' W 074°03'3 5.3
2017-Oct-12 04:30N 40°34' W 074°02'4 7.2
2017-Oct-12 04:00N 40°31' W 073°60'4 8.7
2017-Oct-12 03:30N 40°29' W 073°55'4 8.1
2017-Oct-12 02:58N 40°26' W 073°50'3 4.4
2017-Oct-12 02:21N 40°23' W 073°50'1 2.9
2017-Oct-12 02:00N 40°24' W 073°50'5 4.9
2017-Oct-12 00:59N 40°29' W 073°54'3 6.3
2017-Oct-12 00:30N 40°30' W 073°57'4 7.1
2017-Oct-12 00:00N 40°32' W 074°01'4 8.5
2017-Oct-11 23:30N 40°36' W 074°03'4 7.0
2017-Oct-11 23:00N 40°39' W 074°03'3 7.0
2017-Oct-11 22:30N 40°43' W 074°02'3 6.4
2017-Oct-11 22:01N 40°46' W 074°01'1 1.1
2017-Oct-11 21:30N 40°46' W 073°60'0 0.2
2017-Oct-11 21:01N 40°46' W 074°00'0 0.0
2017-Oct-11 20:30N 40°46' W 074°00'0 0.0
2017-Oct-11 20:00N 40°46' W 074°00'0 0.0
2017-Oct-11 19:31N 40°46' W 074°00'0 0.0
2017-Oct-11 19:00N 40°46' W 074°00'0 0.0
2017-Oct-11 18:30N 40°46' W 074°00'0 0.0
2017-Oct-11 18:00N 40°46' W 074°00'0 0.0
2017-Oct-11 17:30N 40°46' W 074°00'0 0.0
2017-Oct-11 17:00N 40°46' W 074°00'2 0.1
2017-Oct-11 00:00N 40°45' W 074°01'3 6.5
2017-Oct-10 23:31N 40°41' W 074°02'3 6.6
2017-Oct-10 23:01N 40°38' W 074°03'4 7.2
2017-Oct-10 22:31N 40°35' W 074°02'1 1.4
2017-Oct-10 22:00N 40°35' W 074°02'2 3.9
2017-Oct-10 21:30N 40°34' W 074°02'3 5.7
2017-Oct-10 21:00N 40°31' W 073°60'3 5.1
2017-Oct-10 20:26N 40°30' W 073°56'2 5.0
2017-Oct-10 20:00N 40°29' W 073°54'6 5.1
2017-Oct-10 18:51N 40°24' W 073°50'3 5.1
2017-Oct-10 18:19N 40°26' W 073°51'2 6.2
2017-Oct-10 17:59N 40°28' W 073°53'3 6.5
2017-Oct-10 17:29N 40°30' W 073°56'3 6.3
2017-Oct-10 17:00N 40°31' W 073°60'3 5.6
2017-Oct-10 16:30N 40°34' W 074°02'3 5.5
2017-Oct-10 16:01N 40°36' W 074°03'2 4.7
2017-Oct-10 15:31N 40°39' W 074°03'2 4.2
2017-Oct-10 15:01N 40°41' W 074°03'4 4.2
2017-Oct-10 14:01N 40°45' W 074°01'1 2.7
2017-Oct-10 13:31N 40°46' W 074°00'0 0.7
2017-Oct-10 13:01N 40°46' W 074°00'0 0.1
2017-Oct-10 12:30N 40°46' W 074°00'0 0.3
2017-Oct-10 12:00N 40°46' W 074°00'0 0.3
2017-Oct-10 11:31N 40°46' W 074°00'0 0.4
2017-Oct-10 11:00N 40°46' W 074°00'0 0.1
2017-Oct-10 10:30N 40°46' W 074°00'0 0.2
2017-Oct-10 10:00N 40°46' W 073°60'0 0.0
2017-Oct-10 09:30N 40°46' W 073°60'0 0.0
2017-Oct-10 09:01N 40°46' W 073°60'0 0.0
2017-Oct-10 08:30N 40°46' W 073°60'0 0.0
2017-Oct-10 08:00N 40°46' W 073°60'0 0.0
2017-Oct-10 07:30N 40°46' W 073°60'0 0.0
2017-Oct-10 07:00N 40°46' W 073°60'0 0.0
2017-Oct-10 06:31N 40°46' W 073°60'0 0.0
2017-Oct-10 06:01N 40°46' W 073°60'0 0.0
2017-Oct-10 05:30N 40°46' W 073°60'0 0.0
2017-Oct-10 05:00N 40°46' W 073°60'0 0.0
2017-Oct-10 04:30N 40°46' W 073°60'0 0.0
2017-Oct-10 03:59N 40°46' W 073°60'0 0.0
2017-Oct-10 03:31N 40°46' W 073°60'0 0.0
2017-Oct-10 03:00N 40°46' W 073°60'0 0.0
2017-Oct-10 02:30N 40°46' W 073°60'0 0.0
2017-Oct-10 02:00N 40°46' W 073°60'0 0.0
2017-Oct-10 01:30N 40°46' W 073°60'0 0.0
2017-Oct-10 01:00N 40°46' W 073°60'0 0.0
2017-Oct-10 00:30N 40°46' W 073°60'2 3.7
2017-Oct-10 00:01N 40°44' W 074°01'4 8.6
2017-Oct-09 23:30N 40°40' W 074°03'5 9.4
2017-Oct-09 23:01N 40°36' W 074°02'4 8.9
2017-Oct-09 22:30N 40°31' W 074°00'4110.1
2017-Oct-09 18:28N 39°51' W 073°60'511.3
2017-Oct-09 18:00N 39°45' W 074°00'611.4
2017-Oct-09 17:31N 39°40' W 074°03'2711.2
2017-Oct-09 15:05N 39°17' W 074°21'111.3
2017-Oct-09 14:58N 39°16' W 074°22'511.3
2017-Oct-09 14:29N 39°11' W 074°26'611.1
2017-Oct-09 13:55N 39°05' W 074°29'511.3
2017-Oct-09 13:30N 39°01' W 074°30'611.3
2017-Oct-09 12:59N 38°55' W 074°33'611.1
2017-Oct-09 12:25N 38°49' W 074°36'  

Dump ship's entire track history